sensor_id;sensor_type;location;lat;lon;timestamp;pressure;altitude;pressure_sealevel;temperature;humidity
19236;BME280;9752;54.270;12.470;2023-05-23T00:02:59;101406.28;;;12.86;100.00
19236;BME280;9752;54.270;12.470;2023-05-23T00:08:01;101398.53;;;12.88;100.00
19236;BME280;9752;54.270;12.470;2023-05-23T00:13:02;101435.28;;;12.93;100.00
19236;BME280;9752;54.270;12.470;2023-05-23T00:18:06;101421.13;;;13.02;100.00
19236;BME280;9752;54.270;12.470;2023-05-23T00:23:11;101429.75;;;13.16;100.00
19236;BME280;9752;54.270;12.470;2023-05-23T00:28:18;101401.97;;;13.30;100.00
19236;BME280;9752;54.270;12.470;2023-05-23T00:33:21;101441.81;;;13.29;100.00
19236;BME280;9752;54.270;12.470;2023-05-23T00:38:23;101404.72;;;13.33;100.00
19236;BME280;9752;54.270;12.470;2023-05-23T00:43:26;101433.31;;;13.32;100.00
19236;BME280;9752;54.270;12.470;2023-05-23T00:48:30;101423.34;;;13.39;100.00
19236;BME280;9752;54.270;12.470;2023-05-23T00:53:33;101412.13;;;13.55;100.00
19236;BME280;9752;54.270;12.470;2023-05-23T00:58:36;101410.41;;;13.41;100.00
19236;BME280;9752;54.270;12.470;2023-05-23T01:03:39;101414.88;;;13.28;100.00
19236;BME280;9752;54.270;12.470;2023-05-23T01:08:41;101409.19;;;13.21;100.00
19236;BME280;9752;54.270;12.470;2023-05-23T01:13:50;101420.78;;;13.11;100.00
19236;BME280;9752;54.270;12.470;2023-05-23T01:19:04;101399.41;;;13.17;100.00
19236;BME280;9752;54.270;12.470;2023-05-23T01:24:29;101421.78;;;13.13;100.00
19236;BME280;9752;54.270;12.470;2023-05-23T01:29:39;101415.94;;;13.17;100.00
19236;BME280;9752;54.270;12.470;2023-05-23T01:34:44;101413.97;;;13.13;100.00
19236;BME280;9752;54.270;12.470;2023-05-23T01:39:47;101417.00;;;13.06;100.00
19236;BME280;9752;54.270;12.470;2023-05-23T01:44:50;101411.06;;;13.08;100.00
19236;BME280;9752;54.270;12.470;2023-05-23T01:49:53;101410.44;;;13.13;100.00
19236;BME280;9752;54.270;12.470;2023-05-23T01:54:56;101403.72;;;13.01;100.00
19236;BME280;9752;54.270;12.470;2023-05-23T02:00:01;101408.91;;;13.01;100.00
19236;BME280;9752;54.270;12.470;2023-05-23T02:05:13;101402.44;;;12.95;100.00
19236;BME280;9752;54.270;12.470;2023-05-23T02:10:15;101396.66;;;12.85;100.00
19236;BME280;9752;54.270;12.470;2023-05-23T02:15:18;101409.97;;;12.90;100.00
19236;BME280;9752;54.270;12.470;2023-05-23T02:20:20;101403.31;;;12.95;100.00
19236;BME280;9752;54.270;12.470;2023-05-23T02:25:22;101399.03;;;12.96;100.00
19236;BME280;9752;54.270;12.470;2023-05-23T02:30:25;101395.06;;;12.87;100.00
19236;BME280;9752;54.270;12.470;2023-05-23T02:35:26;101398.00;;;12.94;100.00
19236;BME280;9752;54.270;12.470;2023-05-23T02:40:28;101379.88;;;12.95;100.00
19236;BME280;9752;54.270;12.470;2023-05-23T02:45:31;101383.84;;;12.88;100.00
19236;BME280;9752;54.270;12.470;2023-05-23T02:50:33;101373.09;;;12.69;100.00
19236;BME280;9752;54.270;12.470;2023-05-23T02:55:35;101381.84;;;12.69;100.00
19236;BME280;9752;54.270;12.470;2023-05-23T03:00:39;101392.25;;;12.69;100.00
19236;BME280;9752;54.270;12.470;2023-05-23T03:05:43;101382.09;;;12.74;100.00
19236;BME280;9752;54.270;12.470;2023-05-23T03:10:44;101381.00;;;12.70;100.00
19236;BME280;9752;54.270;12.470;2023-05-23T03:15:47;101386.75;;;12.65;100.00
19236;BME280;9752;54.270;12.470;2023-05-23T03:20:49;101461.06;;;12.60;100.00
19236;BME280;9752;54.270;12.470;2023-05-23T03:25:51;101478.56;;;12.62;100.00
19236;BME280;9752;54.270;12.470;2023-05-23T03:30:54;101573.97;;;12.62;100.00
19236;BME280;9752;54.270;12.470;2023-05-23T03:35:56;101603.75;;;12.67;100.00
19236;BME280;9752;54.270;12.470;2023-05-23T03:40:57;101605.28;;;12.77;100.00
19236;BME280;9752;54.270;12.470;2023-05-23T03:46:01;101634.97;;;12.94;100.00
19236;BME280;9752;54.270;12.470;2023-05-23T03:51:04;101632.81;;;12.86;100.00
19236;BME280;9752;54.270;12.470;2023-05-23T03:56:06;101655.03;;;12.81;100.00
19236;BME280;9752;54.270;12.470;2023-05-23T04:01:09;101673.25;;;12.81;100.00
19236;BME280;9752;54.270;12.470;2023-05-23T04:06:11;101697.91;;;12.73;100.00
19236;BME280;9752;54.270;12.470;2023-05-23T04:11:15;101729.03;;;12.85;100.00
19236;BME280;9752;54.270;12.470;2023-05-23T04:16:18;101726.44;;;12.85;100.00
19236;BME280;9752;54.270;12.470;2023-05-23T04:21:22;101724.81;;;12.87;100.00
19236;BME280;9752;54.270;12.470;2023-05-23T04:26:35;101738.75;;;13.01;100.00
19236;BME280;9752;54.270;12.470;2023-05-23T04:31:39;101767.38;;;13.27;100.00
19236;BME280;9752;54.270;12.470;2023-05-23T04:36:40;101782.47;;;13.45;100.00
19236;BME280;9752;54.270;12.470;2023-05-23T04:41:44;101779.50;;;13.67;100.00
19236;BME280;9752;54.270;12.470;2023-05-23T04:47:16;101766.50;;;13.95;100.00
19236;BME280;9752;54.270;12.470;2023-05-23T04:52:39;101722.03;;;14.22;100.00
19236;BME280;9752;54.270;12.470;2023-05-23T04:57:43;101671.63;;;14.53;100.00
19236;BME280;9752;54.270;12.470;2023-05-23T05:02:47;101610.13;;;14.88;100.00
19236;BME280;9752;54.270;12.470;2023-05-23T05:07:49;101560.34;;;15.01;100.00
19236;BME280;9752;54.270;12.470;2023-05-23T05:12:51;101549.66;;;15.29;100.00
19236;BME280;9752;54.270;12.470;2023-05-23T05:17:54;101489.94;;;15.20;100.00
19236;BME280;9752;54.270;12.470;2023-05-23T05:22:57;101466.22;;;15.50;100.00
19236;BME280;9752;54.270;12.470;2023-05-23T05:28:00;101443.63;;;15.34;100.00
19236;BME280;9752;54.270;12.470;2023-05-23T05:33:06;101449.13;;;15.22;100.00
19236;BME280;9752;54.270;12.470;2023-05-23T05:38:08;101446.97;;;15.32;100.00
19236;BME280;9752;54.270;12.470;2023-05-23T05:43:11;101453.38;;;15.20;100.00
19236;BME280;9752;54.270;12.470;2023-05-23T05:48:16;101432.94;;;15.30;100.00
19236;BME280;9752;54.270;12.470;2023-05-23T05:53:18;101415.50;;;15.65;100.00
19236;BME280;9752;54.270;12.470;2023-05-23T05:58:20;101416.41;;;15.65;100.00
19236;BME280;9752;54.270;12.470;2023-05-23T06:03:31;101395.97;;;15.92;100.00
19236;BME280;9752;54.270;12.470;2023-05-23T06:08:33;101369.59;;;16.25;100.00
19236;BME280;9752;54.270;12.470;2023-05-23T06:13:34;101338.81;;;16.58;100.00
19236;BME280;9752;54.270;12.470;2023-05-23T06:18:37;101278.00;;;17.06;100.00
19236;BME280;9752;54.270;12.470;2023-05-23T06:23:39;101268.63;;;17.11;100.00
19236;BME280;9752;54.270;12.470;2023-05-23T06:28:42;101256.44;;;17.34;100.00
19236;BME280;9752;54.270;12.470;2023-05-23T06:33:45;101241.22;;;17.48;100.00
19236;BME280;9752;54.270;12.470;2023-05-23T06:38:47;101235.84;;;17.68;100.00
19236;BME280;9752;54.270;12.470;2023-05-23T06:43:49;101233.72;;;17.80;100.00
19236;BME280;9752;54.270;12.470;2023-05-23T06:48:59;101246.94;;;18.30;100.00
19236;BME280;9752;54.270;12.470;2023-05-23T06:54:01;101248.00;;;18.59;100.00
19236;BME280;9752;54.270;12.470;2023-05-23T06:59:03;101235.38;;;19.00;100.00
19236;BME280;9752;54.270;12.470;2023-05-23T07:04:07;101239.78;;;18.26;100.00
19236;BME280;9752;54.270;12.470;2023-05-23T07:09:08;101241.47;;;18.48;100.00
19236;BME280;9752;54.270;12.470;2023-05-23T07:14:12;101225.06;;;18.55;100.00
19236;BME280;9752;54.270;12.470;2023-05-23T07:19:17;101245.97;;;18.52;100.00
19236;BME280;9752;54.270;12.470;2023-05-23T07:24:23;101237.72;;;18.41;100.00
19236;BME280;9752;54.270;12.470;2023-05-23T07:29:25;101246.47;;;18.42;100.00
19236;BME280;9752;54.270;12.470;2023-05-23T07:34:29;101245.47;;;18.38;100.00
19236;BME280;9752;54.270;12.470;2023-05-23T07:39:34;101235.44;;;18.78;100.00
19236;BME280;9752;54.270;12.470;2023-05-23T07:44:36;101235.19;;;18.70;100.00
19236;BME280;9752;54.270;12.470;2023-05-23T07:49:40;101236.69;;;18.62;100.00
19236;BME280;9752;54.270;12.470;2023-05-23T07:54:42;101245.44;;;18.37;100.00
19236;BME280;9752;54.270;12.470;2023-05-23T07:59:46;101255.06;;;18.12;100.00
19236;BME280;9752;54.270;12.470;2023-05-23T08:04:49;101263.53;;;18.05;100.00
19236;BME280;9752;54.270;12.470;2023-05-23T08:09:52;101273.41;;;17.88;100.00
19236;BME280;9752;54.270;12.470;2023-05-23T08:14:55;101280.81;;;17.77;100.00
19236;BME280;9752;54.270;12.470;2023-05-23T08:19:59;101294.13;;;17.59;100.00
19236;BME280;9752;54.270;12.470;2023-05-23T08:25:04;101309.28;;;17.45;100.00
19236;BME280;9752;54.270;12.470;2023-05-23T08:30:10;101304.03;;;17.02;100.00
19236;BME280;9752;54.270;12.470;2023-05-23T08:35:14;101306.31;;;16.74;100.00
19236;BME280;9752;54.270;12.470;2023-05-23T08:40:18;101310.22;;;16.24;100.00
19236;BME280;9752;54.270;12.470;2023-05-23T08:45:26;101307.56;;;16.63;100.00
19236;BME280;9752;54.270;12.470;2023-05-23T08:50:31;101322.16;;;16.97;100.00
19236;BME280;9752;54.270;12.470;2023-05-23T08:55:34;101314.22;;;16.95;100.00
19236;BME280;9752;54.270;12.470;2023-05-23T09:00:37;101327.34;;;17.16;100.00
19236;BME280;9752;54.270;12.470;2023-05-23T09:05:40;101320.19;;;16.72;100.00
19236;BME280;9752;54.270;12.470;2023-05-23T09:10:43;101332.06;;;17.46;100.00
19236;BME280;9752;54.270;12.470;2023-05-23T09:16:00;101324.72;;;17.59;100.00
19236;BME280;9752;54.270;12.470;2023-05-23T09:21:06;101328.16;;;17.58;100.00
19236;BME280;9752;54.270;12.470;2023-05-23T09:26:11;101324.47;;;17.31;100.00
19236;BME280;9752;54.270;12.470;2023-05-23T09:31:14;101313.91;;;18.91;100.00
19236;BME280;9752;54.270;12.470;2023-05-23T09:36:17;101308.84;;;19.23;100.00
19236;BME280;9752;54.270;12.470;2023-05-23T09:41:19;101306.13;;;19.74;100.00
19236;BME280;9752;54.270;12.470;2023-05-23T09:46:21;101288.19;;;20.52;100.00
19236;BME280;9752;54.270;12.470;2023-05-23T09:51:25;101287.19;;;19.86;100.00
19236;BME280;9752;54.270;12.470;2023-05-23T09:56:27;101288.78;;;19.54;100.00
19236;BME280;9752;54.270;12.470;2023-05-23T10:01:31;101277.56;;;20.48;100.00
19236;BME280;9752;54.270;12.470;2023-05-23T10:06:40;101290.75;;;20.48;100.00
19236;BME280;9752;54.270;12.470;2023-05-23T10:17:28;101323.66;;;18.94;100.00
19236;BME280;9752;54.270;12.470;2023-05-23T10:22:35;101340.25;;;18.20;100.00
19236;BME280;9752;54.270;12.470;2023-05-23T10:27:36;101329.63;;;17.94;100.00
19236;BME280;9752;54.270;12.470;2023-05-23T10:32:39;101324.41;;;17.73;100.00
19236;BME280;9752;54.270;12.470;2023-05-23T10:37:48;101335.09;;;18.46;100.00
19236;BME280;9752;54.270;12.470;2023-05-23T10:42:56;101338.53;;;18.45;100.00
19236;BME280;9752;54.270;12.470;2023-05-23T10:48:00;101343.19;;;18.78;100.00
19236;BME280;9752;54.270;12.470;2023-05-23T10:53:04;101344.78;;;19.22;100.00
19236;BME280;9752;54.270;12.470;2023-05-23T10:58:10;101353.63;;;18.75;100.00
19236;BME280;9752;54.270;12.470;2023-05-23T11:03:12;101358.19;;;18.09;100.00
19236;BME280;9752;54.270;12.470;2023-05-23T11:08:15;101364.94;;;18.48;100.00
19236;BME280;9752;54.270;12.470;2023-05-23T11:13:18;101365.59;;;18.42;100.00
19236;BME280;9752;54.270;12.470;2023-05-23T11:18:26;101376.84;;;18.40;100.00
19236;BME280;9752;54.270;12.470;2023-05-23T11:23:40;101367.09;;;18.13;100.00
19236;BME280;9752;54.270;12.470;2023-05-23T11:28:54;101388.88;;;18.10;100.00
19236;BME280;9752;54.270;12.470;2023-05-23T11:33:56;101394.78;;;18.05;100.00
19236;BME280;9752;54.270;12.470;2023-05-23T11:39:01;101381.91;;;17.46;100.00
19236;BME280;9752;54.270;12.470;2023-05-23T11:44:10;101389.94;;;17.30;100.00
19236;BME280;9752;54.270;12.470;2023-05-23T11:49:12;101389.75;;;17.04;100.00
19236;BME280;9752;54.270;12.470;2023-05-23T11:54:15;101398.59;;;17.69;100.00
19236;BME280;9752;54.270;12.470;2023-05-23T11:59:18;101404.72;;;17.28;100.00
19236;BME280;9752;54.270;12.470;2023-05-23T12:04:20;101407.25;;;17.05;100.00
19236;BME280;9752;54.270;12.470;2023-05-23T12:09:23;101404.09;;;16.93;100.00
19236;BME280;9752;54.270;12.470;2023-05-23T12:14:27;101413.97;;;16.98;100.00
19236;BME280;9752;54.270;12.470;2023-05-23T12:19:29;101431.34;;;16.96;100.00
19236;BME280;9752;54.270;12.470;2023-05-23T12:24:33;101440.22;;;16.06;100.00
19236;BME280;9752;54.270;12.470;2023-05-23T12:29:34;101440.66;;;15.79;100.00
19236;BME280;9752;54.270;12.470;2023-05-23T12:34:40;101439.91;;;16.17;100.00
19236;BME280;9752;54.270;12.470;2023-05-23T12:39:43;101457.03;;;15.93;100.00
19236;BME280;9752;54.270;12.470;2023-05-23T12:44:49;101458.69;;;15.56;100.00
19236;BME280;9752;54.270;12.470;2023-05-23T12:49:51;101468.84;;;15.50;100.00
19236;BME280;9752;54.270;12.470;2023-05-23T12:54:54;101471.59;;;15.53;100.00
19236;BME280;9752;54.270;12.470;2023-05-23T12:59:56;101478.50;;;15.35;100.00
19236;BME280;9752;54.270;12.470;2023-05-23T13:04:58;101494.22;;;14.86;100.00
19236;BME280;9752;54.270;12.470;2023-05-23T13:10:01;101499.66;;;14.42;100.00
19236;BME280;9752;54.270;12.470;2023-05-23T13:15:04;101518.00;;;14.44;100.00
19236;BME280;9752;54.270;12.470;2023-05-23T13:20:07;101527.06;;;14.19;100.00
19236;BME280;9752;54.270;12.470;2023-05-23T13:25:11;101541.09;;;13.92;100.00
19236;BME280;9752;54.270;12.470;2023-05-23T13:30:13;101553.81;;;13.42;100.00
19236;BME280;9752;54.270;12.470;2023-05-23T13:35:15;101570.66;;;13.06;100.00
19236;BME280;9752;54.270;12.470;2023-05-23T13:40:19;101589.50;;;13.02;100.00
19236;BME280;9752;54.270;12.470;2023-05-23T13:45:21;101602.69;;;12.77;100.00
19236;BME280;9752;54.270;12.470;2023-05-23T13:50:24;101776.53;;;12.56;100.00
19236;BME280;9752;54.270;12.470;2023-05-23T13:55:27;101833.03;;;12.20;100.00
19236;BME280;9752;54.270;12.470;2023-05-23T14:00:30;101890.63;;;12.01;100.00
19236;BME280;9752;54.270;12.470;2023-05-23T14:05:31;101997.94;;;11.98;100.00
19236;BME280;9752;54.270;12.470;2023-05-23T14:10:34;102059.91;;;11.92;100.00
19236;BME280;9752;54.270;12.470;2023-05-23T14:15:36;102120.22;;;11.88;100.00
19236;BME280;9752;54.270;12.470;2023-05-23T14:20:38;102189.34;;;11.96;100.00
19236;BME280;9752;54.270;12.470;2023-05-23T14:25:41;102261.16;;;12.06;100.00
19236;BME280;9752;54.270;12.470;2023-05-23T14:30:43;102304.00;;;11.99;100.00
19236;BME280;9752;54.270;12.470;2023-05-23T14:35:44;102356.97;;;11.79;100.00
19236;BME280;9752;54.270;12.470;2023-05-23T14:40:47;102403.44;;;11.64;100.00
19236;BME280;9752;54.270;12.470;2023-05-23T14:45:49;102437.34;;;11.66;100.00
19236;BME280;9752;54.270;12.470;2023-05-23T14:50:51;102473.09;;;11.58;100.00
19236;BME280;9752;54.270;12.470;2023-05-23T14:55:55;102510.75;;;11.73;100.00
19236;BME280;9752;54.270;12.470;2023-05-23T15:00:56;102526.88;;;11.69;100.00
19236;BME280;9752;54.270;12.470;2023-05-23T15:05:58;102535.75;;;11.61;100.00
19236;BME280;9752;54.270;12.470;2023-05-23T15:11:01;102571.09;;;11.69;100.00
19236;BME280;9752;54.270;12.470;2023-05-23T15:16:03;102578.75;;;11.47;100.00
19236;BME280;9752;54.270;12.470;2023-05-23T15:21:06;102606.16;;;11.33;100.00
19236;BME280;9752;54.270;12.470;2023-05-23T15:26:09;102624.06;;;11.30;100.00
19236;BME280;9752;54.270;12.470;2023-05-23T15:31:10;102656.41;;;11.24;100.00
19236;BME280;9752;54.270;12.470;2023-05-23T15:36:12;102683.78;;;11.10;100.00
19236;BME280;9752;54.270;12.470;2023-05-23T15:41:15;102699.59;;;11.13;100.00
19236;BME280;9752;54.270;12.470;2023-05-23T15:46:17;102772.31;;;11.13;100.00
19236;BME280;9752;54.270;12.470;2023-05-23T15:51:19;102785.88;;;11.00;100.00
19236;BME280;9752;54.270;12.470;2023-05-23T15:56:22;102819.56;;;11.09;100.00
19236;BME280;9752;54.270;12.470;2023-05-23T16:01:23;102830.50;;;11.15;100.00
19236;BME280;9752;54.270;12.470;2023-05-23T16:06:25;102844.63;;;11.27;100.00
19236;BME280;9752;54.270;12.470;2023-05-23T16:11:29;102848.81;;;11.36;100.00
19236;BME280;9752;54.270;12.470;2023-05-23T16:16:30;102857.44;;;11.45;100.00
19236;BME280;9752;54.270;12.470;2023-05-23T16:21:32;102861.78;;;11.55;100.00
19236;BME280;9752;54.270;12.470;2023-05-23T16:26:35;102850.00;;;11.68;100.00
19236;BME280;9752;54.270;12.470;2023-05-23T16:31:38;102810.81;;;11.86;100.00
19236;BME280;9752;54.270;12.470;2023-05-23T16:36:40;102748.97;;;12.02;100.00
19236;BME280;9752;54.270;12.470;2023-05-23T16:41:43;102647.41;;;11.90;100.00
19236;BME280;9752;54.270;12.470;2023-05-23T16:46:45;102552.88;;;12.00;100.00
19236;BME280;9752;54.270;12.470;2023-05-23T16:51:46;102457.13;;;12.06;100.00
19236;BME280;9752;54.270;12.470;2023-05-23T16:56:49;102370.28;;;12.04;100.00
19236;BME280;9752;54.270;12.470;2023-05-23T17:01:51;102317.97;;;11.89;100.00
19236;BME280;9752;54.270;12.470;2023-05-23T17:06:53;102256.00;;;11.73;100.00
19236;BME280;9752;54.270;12.470;2023-05-23T17:11:56;102214.63;;;11.65;100.00
19236;BME280;9752;54.270;12.470;2023-05-23T17:16:58;102167.31;;;11.47;100.00
19236;BME280;9752;54.270;12.470;2023-05-23T17:22:00;102097.81;;;11.44;100.00
19236;BME280;9752;54.270;12.470;2023-05-23T17:27:03;102067.78;;;11.48;100.00
19236;BME280;9752;54.270;12.470;2023-05-23T17:32:05;102044.84;;;11.42;100.00
19236;BME280;9752;54.270;12.470;2023-05-23T17:37:07;102030.63;;;11.49;100.00
19236;BME280;9752;54.270;12.470;2023-05-23T17:42:12;102021.56;;;11.44;100.00
19236;BME280;9752;54.270;12.470;2023-05-23T17:47:14;101979.97;;;11.44;100.00
19236;BME280;9752;54.270;12.470;2023-05-23T17:52:17;101958.56;;;11.46;100.00
19236;BME280;9752;54.270;12.470;2023-05-23T17:57:20;101934.72;;;11.40;100.00
19236;BME280;9752;54.270;12.470;2023-05-23T18:02:22;101920.34;;;11.33;100.00
19236;BME280;9752;54.270;12.470;2023-05-23T18:07:24;101896.41;;;11.26;100.00
19236;BME280;9752;54.270;12.470;2023-05-23T18:12:27;101862.31;;;11.21;100.00
19236;BME280;9752;54.270;12.470;2023-05-23T18:17:28;101844.69;;;11.29;100.00
19236;BME280;9752;54.270;12.470;2023-05-23T18:22:30;101842.88;;;11.40;100.00
19236;BME280;9752;54.270;12.470;2023-05-23T18:27:34;101846.28;;;11.39;100.00
19236;BME280;9752;54.270;12.470;2023-05-23T18:32:35;101858.69;;;11.31;100.00
19236;BME280;9752;54.270;12.470;2023-05-23T18:37:37;101827.50;;;11.19;100.00
19236;BME280;9752;54.270;12.470;2023-05-23T18:42:40;101822.31;;;11.19;100.00
19236;BME280;9752;54.270;12.470;2023-05-23T18:47:42;101822.91;;;11.27;100.00
19236;BME280;9752;54.270;12.470;2023-05-23T18:52:44;101826.72;;;11.20;100.00
19236;BME280;9752;54.270;12.470;2023-05-23T18:57:47;101824.00;;;11.19;100.00
19236;BME280;9752;54.270;12.470;2023-05-23T19:02:48;101828.88;;;11.14;100.00
19236;BME280;9752;54.270;12.470;2023-05-23T19:07:50;101813.94;;;11.00;100.00
19236;BME280;9752;54.270;12.470;2023-05-23T19:12:53;101830.41;;;11.00;100.00
19236;BME280;9752;54.270;12.470;2023-05-23T19:17:55;101835.72;;;10.90;100.00
19236;BME280;9752;54.270;12.470;2023-05-23T19:22:56;101827.59;;;10.85;100.00
19236;BME280;9752;54.270;12.470;2023-05-23T19:27:59;101845.78;;;10.85;100.00
19236;BME280;9752;54.270;12.470;2023-05-23T19:33:01;101841.00;;;10.80;100.00
19236;BME280;9752;54.270;12.470;2023-05-23T19:38:03;101851.72;;;10.72;100.00
19236;BME280;9752;54.270;12.470;2023-05-23T19:43:06;101846.41;;;10.71;100.00
19236;BME280;9752;54.270;12.470;2023-05-23T19:48:08;101869.28;;;10.65;100.00
19236;BME280;9752;54.270;12.470;2023-05-23T19:53:10;101872.34;;;10.71;100.00
19236;BME280;9752;54.270;12.470;2023-05-23T19:58:13;101890.81;;;10.64;100.00
19236;BME280;9752;54.270;12.470;2023-05-23T20:03:15;101899.75;;;10.67;100.00
19236;BME280;9752;54.270;12.470;2023-05-23T20:08:17;101906.88;;;10.70;100.00
19236;BME280;9752;54.270;12.470;2023-05-23T20:13:20;101903.22;;;10.68;100.00
19236;BME280;9752;54.270;12.470;2023-05-23T20:18:22;101917.78;;;10.66;100.00
19236;BME280;9752;54.270;12.470;2023-05-23T20:23:24;101911.25;;;10.71;100.00
19236;BME280;9752;54.270;12.470;2023-05-23T20:28:27;101918.28;;;10.72;100.00
19236;BME280;9752;54.270;12.470;2023-05-23T20:33:29;101929.69;;;10.74;100.00
19236;BME280;9752;54.270;12.470;2023-05-23T20:38:31;101941.22;;;10.78;100.00
19236;BME280;9752;54.270;12.470;2023-05-23T20:43:35;101944.81;;;10.80;100.00
19236;BME280;9752;54.270;12.470;2023-05-23T20:48:37;101939.72;;;10.81;100.00
19236;BME280;9752;54.270;12.470;2023-05-23T20:53:39;101939.84;;;10.83;100.00
19236;BME280;9752;54.270;12.470;2023-05-23T20:58:42;101948.31;;;10.80;100.00
19236;BME280;9752;54.270;12.470;2023-05-23T21:03:45;101955.28;;;10.81;100.00
19236;BME280;9752;54.270;12.470;2023-05-23T21:08:46;101949.09;;;10.79;100.00
19236;BME280;9752;54.270;12.470;2023-05-23T21:13:49;101953.63;;;10.82;100.00
19236;BME280;9752;54.270;12.470;2023-05-23T21:18:51;101951.81;;;10.81;100.00
19236;BME280;9752;54.270;12.470;2023-05-23T21:23:53;101941.97;;;10.77;100.00
19236;BME280;9752;54.270;12.470;2023-05-23T21:28:56;101940.72;;;10.71;100.00
19236;BME280;9752;54.270;12.470;2023-05-23T21:33:57;101940.50;;;10.68;100.00
19236;BME280;9752;54.270;12.470;2023-05-23T21:38:59;101942.06;;;10.66;100.00
19236;BME280;9752;54.270;12.470;2023-05-23T21:44:04;101947.66;;;10.61;100.00
19236;BME280;9752;54.270;12.470;2023-05-23T21:49:05;101948.44;;;10.60;100.00
19236;BME280;9752;54.270;12.470;2023-05-23T21:54:07;101935.72;;;10.63;100.00
19236;BME280;9752;54.270;12.470;2023-05-23T21:59:10;101946.66;;;10.59;100.00
19236;BME280;9752;54.270;12.470;2023-05-23T22:04:12;101942.78;;;10.53;100.00
19236;BME280;9752;54.270;12.470;2023-05-23T22:09:13;101956.44;;;10.51;100.00
19236;BME280;9752;54.270;12.470;2023-05-23T22:14:17;101958.88;;;10.49;100.00
19236;BME280;9752;54.270;12.470;2023-05-23T22:19:18;101946.94;;;10.51;100.00
19236;BME280;9752;54.270;12.470;2023-05-23T22:24:20;101955.75;;;10.53;100.00
19236;BME280;9752;54.270;12.470;2023-05-23T22:29:23;101952.72;;;10.59;100.00
19236;BME280;9752;54.270;12.470;2023-05-23T22:34:25;101949.00;;;10.55;100.00
19236;BME280;9752;54.270;12.470;2023-05-23T22:39:27;101957.13;;;10.60;100.00
19236;BME280;9752;54.270;12.470;2023-05-23T22:44:30;101952.06;;;10.62;100.00
19236;BME280;9752;54.270;12.470;2023-05-23T22:49:31;101955.69;;;10.64;100.00
19236;BME280;9752;54.270;12.470;2023-05-23T22:54:33;101950.13;;;10.59;100.00
19236;BME280;9752;54.270;12.470;2023-05-23T22:59:36;101949.25;;;10.59;100.00
19236;BME280;9752;54.270;12.470;2023-05-23T23:04:38;101952.84;;;10.61;100.00
19236;BME280;9752;54.270;12.470;2023-05-23T23:09:41;101951.50;;;10.66;100.00
19236;BME280;9752;54.270;12.470;2023-05-23T23:14:44;101954.78;;;10.63;100.00
19236;BME280;9752;54.270;12.470;2023-05-23T23:19:46;101955.56;;;10.62;100.00
19236;BME280;9752;54.270;12.470;2023-05-23T23:24:48;101953.75;;;10.61;100.00
19236;BME280;9752;54.270;12.470;2023-05-23T23:29:53;101941.88;;;10.53;100.00
19236;BME280;9752;54.270;12.470;2023-05-23T23:34:55;101965.88;;;10.50;100.00
19236;BME280;9752;54.270;12.470;2023-05-23T23:39:56;101966.00;;;10.52;100.00
19236;BME280;9752;54.270;12.470;2023-05-23T23:45:00;101971.19;;;10.52;100.00
19236;BME280;9752;54.270;12.470;2023-05-23T23:50:01;101964.97;;;10.50;100.00
19236;BME280;9752;54.270;12.470;2023-05-23T23:55:04;101969.28;;;10.49;100.00
